Time;durP1;ratioP1;P1;durP2;ratioP2;P2;SDS_P1;SDS_P2;PMS_P1;PMS_P2;Temp;Humidity;BMP_temperature;BMP_pressure;BME280_temperature;BME280_humidity;BME280_pressure;Samples;Min_cycle;Max_cycle;Signal;HPM_P1;HPM_P2
2021/07/24 00:00:28;;;;;;;18.98;11.82;;;;;;;21.49;49.29;92539.94;2052488;70;20233;-74
2021/07/24 00:02:54;;;;;;;22.67;11.75;;;;;;;21.62;47.32;92541.56;2052440;70;20532;-73
2021/07/24 00:05:20;;;;;;;19.45;11.43;;;;;;;21.49;47.23;92542.81;2065379;69;20166;-74
2021/07/24 00:07:45;;;;;;;15.73;11.02;;;;;;;21.39;47.42;92548.31;2052574;70;20130;-74
2021/07/24 00:10:11;;;;;;;20.65;11.25;;;;;;;21.37;46.21;92539.72;2052380;69;20185;-74
2021/07/24 00:12:40;;;;;;;16.75;10.82;;;;;;;21.50;46.39;92533.50;2051841;70;20233;-74
2021/07/24 00:15:07;;;;;;;20.77;11.35;;;;;;;21.16;47.48;92527.84;2052051;69;20703;-72
2021/07/24 00:17:33;;;;;;;17.08;11.25;;;;;;;21.24;47.65;92525.13;2051876;69;20249;-72
2021/07/24 00:19:58;;;;;;;16.90;11.13;;;;;;;20.99;50.37;92508.94;2051971;70;20145;-74
2021/07/24 00:22:24;;;;;;;18.35;11.35;;;;;;;20.73;48.48;92507.00;2051930;69;20241;-73
2021/07/24 00:24:53;;;;;;;16.83;10.27;;;;;;;21.22;48.00;92507.94;2052151;70;20153;-75
2021/07/24 00:27:19;;;;;;;18.58;10.45;;;;;;;21.17;48.55;92502.84;2052289;69;20177;-75
2021/07/24 00:29:44;;;;;;;15.73;10.63;;;;;;;21.19;47.10;92502.84;2065380;69;20174;-74
2021/07/24 00:32:10;;;;;;;17.55;10.57;;;;;;;21.30;48.46;92499.50;2052184;70;20123;-74
2021/07/24 00:34:38;;;;;;;19.65;10.55;;;;;;;21.20;48.21;92495.72;2052033;70;20154;-74
2021/07/24 00:37:08;;;;;;;15.75;10.52;;;;;;;21.34;47.43;92487.41;2052176;69;20173;-74
2021/07/24 00:39:34;;;;;;;17.73;10.73;;;;;;;21.33;47.04;92490.97;2052133;69;20178;-73
2021/07/24 00:42:23;;;;;;;17.48;10.20;;;;;;;21.25;48.51;92494.38;2051967;69;20624;-74
2021/07/24 00:44:57;;;;;;;17.60;11.13;;;;;;;21.39;47.30;92488.19;2052117;70;20233;-74
2021/07/24 00:47:29;;;;;;;17.95;10.82;;;;;;;21.33;47.31;92497.41;2052185;70;20162;-73
2021/07/24 00:50:12;;;;;;;15.88;10.75;;;;;;;21.02;47.72;92493.25;2064914;69;20181;-74
2021/07/24 00:52:40;;;;;;;16.35;10.52;;;;;;;21.13;48.57;92482.72;2064647;69;20177;-73
2021/07/24 00:55:07;;;;;;;17.50;10.10;;;;;;;21.08;48.11;92492.66;2051747;69;20220;-74
2021/07/24 00:57:32;;;;;;;17.77;10.43;;;;;;;21.13;48.10;92485.59;2051794;70;20214;-73
2021/07/24 01:00:00;;;;;;;19.83;10.93;;;;;;;21.02;49.41;92493.25;2051824;70;20686;-74
2021/07/24 01:02:26;;;;;;;16.77;10.60;;;;;;;20.58;48.87;92484.53;2064965;69;20253;-74
2021/07/24 01:04:52;;;;;;;16.25;10.50;;;;;;;20.85;48.22;92491.47;2065259;69;20601;-74
2021/07/24 01:07:18;;;;;;;16.95;10.63;;;;;;;20.88;48.80;92487.25;2052406;69;20223;-74
2021/07/24 01:09:44;;;;;;;16.52;10.55;;;;;;;21.02;48.10;92490.38;2052381;69;20173;-74
2021/07/24 01:12:10;;;;;;;15.25;10.45;;;;;;;20.98;48.41;92491.03;2065331;69;20147;-74
2021/07/24 01:14:37;;;;;;;15.35;10.32;;;;;;;21.01;48.67;92488.94;2065307;69;20169;-75
2021/07/24 01:17:03;;;;;;;17.58;10.40;;;;;;;21.06;48.39;92476.16;2052253;70;20541;-75
2021/07/24 01:19:36;;;;;;;20.25;10.63;;;;;;;21.02;48.71;92478.94;2065307;69;20150;-75
2021/07/24 01:22:03;;;;;;;17.30;10.98;;;;;;;20.89;48.52;92472.28;2052327;69;20130;-76
2021/07/24 01:24:31;;;;;;;20.52;10.27;;;;;;;20.83;49.16;92471.41;2065275;69;20615;-75
2021/07/24 01:26:58;;;;;;;17.55;11.32;;;;;;;20.84;49.60;92465.00;2065292;69;20153;-74
2021/07/24 01:29:24;;;;;;;17.60;10.07;;;;;;;20.71;51.50;92471.91;2065255;69;20238;-75
2021/07/24 01:31:56;;;;;;;20.30;10.63;;;;;;;20.61;52.33;92475.28;2052336;70;20146;-75
2021/07/24 01:34:22;;;;;;;18.48;10.82;;;;;;;20.62;51.62;92478.88;2065228;69;20235;-75
2021/07/24 01:36:48;;;;;;;16.45;10.75;;;;;;;20.52;50.06;92473.66;2052457;70;20524;-75
2021/07/24 01:39:14;;;;;;;17.05;10.48;;;;;;;20.59;51.13;92483.13;2052446;69;20155;-75
2021/07/24 01:41:45;;;;;;;17.98;10.35;;;;;;;20.56;49.44;92477.34;2065196;69;20584;-75
2021/07/24 01:44:12;;;;;;;17.17;11.13;;;;;;;20.40;49.97;92473.41;2052456;69;20189;-75
2021/07/24 01:46:39;;;;;;;18.10;10.80;;;;;;;20.64;49.56;92476.78;2065225;69;20157;-75
2021/07/24 01:55:04;;;;;;;15.77;10.65;;;;;;;20.41;49.95;92475.56;2052271;69;20153;-75
2021/07/24 01:57:41;;;;;;;18.58;10.57;;;;;;;20.12;50.37;92477.13;2065389;69;20139;-75
2021/07/24 02:00:10;;;;;;;16.58;10.98;;;;;;;20.30;52.07;92463.22;2065349;69;20508;-75
2021/07/24 02:02:50;;;;;;;14.88;10.15;;;;;;;20.24;52.52;92465.22;2052168;70;20142;-75
2021/07/24 02:05:38;;;;;;;16.80;10.20;;;;;;;20.38;51.45;92473.34;2065323;69;20757;-74
2021/07/24 02:08:06;;;;;;;16.90;10.07;;;;;;;20.20;53.25;92479.41;2065238;69;20154;-75
2021/07/24 02:10:33;;;;;;;19.25;10.70;;;;;;;20.38;51.51;92491.22;2065216;69;20145;-75
2021/07/24 02:13:01;;;;;;;16.05;10.75;;;;;;;20.21;51.41;92498.03;2064891;69;20153;-75
2021/07/24 02:15:28;;;;;;;16.63;10.65;;;;;;;20.13;51.96;92495.72;2065225;69;20229;-75
2021/07/24 02:17:56;;;;;;;18.77;10.80;;;;;;;19.97;53.25;92498.19;2065102;69;20632;-75
2021/07/24 02:20:23;;;;;;;18.90;10.50;;;;;;;20.05;52.34;92499.09;2052224;69;20178;-74
2021/07/24 02:22:49;;;;;;;18.00;10.77;;;;;;;20.02;53.34;92494.00;2052243;70;20142;-75
2021/07/24 02:25:16;;;;;;;16.52;10.65;;;;;;;20.11;52.69;92492.06;2062337;69;20532;-75
2021/07/24 02:27:46;;;;;;;16.52;10.35;;;;;;;20.13;51.98;92492.84;2065107;69;20610;-75
2021/07/24 02:30:14;;;;;;;17.27;10.98;;;;;;;20.09;52.52;92489.91;2065209;69;20640;-75
2021/07/24 02:32:40;;;;;;;19.42;10.63;;;;;;;19.92;53.58;92482.38;2052064;70;20627;-75
2021/07/24 02:35:08;;;;;;;16.13;10.95;;;;;;;20.00;53.98;92477.56;2052223;69;20597;-75
2021/07/24 02:37:40;;;;;;;15.27;10.50;;;;;;;20.15;52.44;92490.03;2065174;69;20138;-75
2021/07/24 02:40:07;;;;;;;18.65;10.55;;;;;;;20.17;50.42;92492.22;2046396;69;20138;-75
2021/07/24 02:42:40;;;;;;;15.57;10.57;;;;;;;20.00;50.80;92493.97;2065176;69;20519;-75
2021/07/24 02:45:06;;;;;;;18.75;10.80;;;;;;;20.12;50.00;92497.13;2065134;69;20688;-75
2021/07/24 02:47:32;;;;;;;16.85;10.85;;;;;;;19.95;49.98;92481.75;2064964;69;20141;-75
2021/07/24 02:49:58;;;;;;;14.63;10.48;;;;;;;20.13;49.48;92490.00;2065137;69;20146;-75
2021/07/24 02:52:25;;;;;;;18.02;10.45;;;;;;;20.20;49.25;92487.97;2065087;69;20166;-75
2021/07/24 02:54:51;;;;;;;16.77;10.20;;;;;;;20.07;50.17;92492.72;2065039;69;20159;-75
2021/07/24 02:57:17;;;;;;;18.25;10.45;;;;;;;20.12;50.30;92487.81;2052192;69;20146;-75
2021/07/24 02:59:43;;;;;;;14.25;9.90;;;;;;;20.15;50.07;92500.72;2065066;69;20146;-75
2021/07/24 03:02:09;;;;;;;16.45;10.65;;;;;;;20.17;49.57;92495.06;2052155;70;20146;-75
2021/07/24 03:04:34;;;;;;;18.15;10.77;;;;;;;20.13;48.83;92504.28;2052168;70;20497;-75
2021/07/24 03:07:00;;;;;;;14.80;10.13;;;;;;;20.16;48.90;92502.94;2065053;69;20205;-75
2021/07/24 03:09:25;;;;;;;16.85;10.68;;;;;;;20.12;50.05;92505.69;2052218;70;20170;-75
2021/07/24 03:11:51;;;;;;;13.98;10.00;;;;;;;20.02;52.08;92503.34;2052251;70;20146;-75
2021/07/24 03:14:16;;;;;;;16.90;10.90;;;;;;;19.96;53.57;92511.03;2052209;70;20173;-75
2021/07/24 03:16:43;;;;;;;22.25;10.68;;;;;;;19.92;53.46;92508.06;2051938;70;20158;-74
2021/07/24 03:19:08;;;;;;;19.33;11.40;;;;;;;19.78;53.73;92526.34;2052110;70;20619;-75
2021/07/24 03:21:34;;;;;;;16.20;10.80;;;;;;;19.70;52.78;92520.44;2052083;70;20170;-74
2021/07/24 03:23:59;;;;;;;19.08;10.85;;;;;;;19.98;51.49;92514.66;2052056;70;20154;-75
2021/07/24 03:26:25;;;;;;;18.23;10.20;;;;;;;20.09;50.27;92500.59;2052033;70;20181;-75
2021/07/24 03:28:51;;;;;;;15.93;10.32;;;;;;;20.27;50.13;92489.56;2052056;70;20619;-76
2021/07/24 03:31:17;;;;;;;16.92;11.35;;;;;;;20.36;49.93;92470.47;2065043;69;20225;-75
2021/07/24 03:33:42;;;;;;;14.60;10.73;;;;;;;20.03;51.00;92459.06;2051973;69;20145;-75
2021/07/24 03:36:08;;;;;;;19.30;9.77;;;;;;;19.86;51.85;92460.09;2052280;70;20151;-75
2021/07/24 03:38:34;;;;;;;19.08;11.30;;;;;;;20.14;49.57;92454.28;2052166;70;20174;-75
2021/07/24 03:41:03;;;;;;;20.02;10.75;;;;;;;20.16;48.95;92447.88;2052070;70;20627;-75
2021/07/24 03:43:28;;;;;;;15.95;11.10;;;;;;;20.12;49.29;92434.25;2052043;69;20150;-75
2021/07/24 03:45:54;;;;;;;20.20;10.13;;;;;;;20.07;50.13;92455.59;2052044;70;20636;-74
2021/07/24 03:48:19;;;;;;;17.58;10.90;;;;;;;19.94;51.38;92462.44;2064851;69;20146;-75
2021/07/24 03:50:46;;;;;;;21.27;11.02;;;;;;;19.97;50.02;92467.50;2052071;69;20208;-75
2021/07/24 03:53:12;;;;;;;20.15;11.07;;;;;;;19.88;51.17;92463.00;2064949;69;20153;-74
2021/07/24 03:55:37;;;;;;;20.17;11.02;;;;;;;19.78;52.55;92454.94;2051917;70;20131;-75
2021/07/24 03:58:03;;;;;;;20.98;11.00;;;;;;;19.51;54.05;92458.53;2051999;70;20309;-75
2021/07/24 04:00:45;;;;;;;16.17;11.07;;;;;;;19.67;53.00;92458.25;2051973;70;20138;-75
2021/07/24 04:03:11;;;;;;;16.55;10.80;;;;;;;19.75;52.04;92459.16;2051928;70;20141;-75
2021/07/24 04:05:43;;;;;;;18.35;11.00;;;;;;;19.78;53.05;92459.91;2051976;70;20146;-75
2021/07/24 04:08:10;;;;;;;17.08;10.80;;;;;;;19.83;52.50;92458.59;2064946;69;20150;-75
2021/07/24 04:10:37;;;;;;;18.42;10.90;;;;;;;19.71;52.96;92453.34;2051996;70;20142;-75
2021/07/24 04:13:04;;;;;;;23.33;10.73;;;;;;;19.55;55.05;92450.09;2051980;69;20164;-75
2021/07/24 04:15:30;;;;;;;20.60;12.05;;;;;;;19.29;54.52;92456.63;2051996;69;20208;-75
2021/07/24 04:17:58;;;;;;;17.08;11.55;;;;;;;19.44;52.55;92462.66;2051839;70;20158;-75
2021/07/24 04:20:23;;;;;;;20.02;11.02;;;;;;;19.43;54.85;92459.09;2064914;69;20146;-75
2021/07/24 04:22:49;;;;;;;15.05;11.23;;;;;;;19.47;55.15;92461.31;2052056;70;20593;-75
2021/07/24 04:25:14;;;;;;;16.02;11.27;;;;;;;19.55;54.94;92442.25;2051953;70;20178;-75
2021/07/24 04:27:40;;;;;;;18.08;10.93;;;;;;;19.78;52.21;92454.22;2052240;69;20229;-75
2021/07/24 04:30:07;;;;;;;16.25;11.15;;;;;;;19.58;54.15;92448.00;2052524;70;20154;-74
2021/07/24 04:32:32;;;;;;;16.30;10.55;;;;;;;19.66;53.11;92448.22;2052408;70;20146;-75
2021/07/24 04:34:58;;;;;;;17.20;11.05;;;;;;;19.72;53.95;92451.22;2052510;70;20528;-75
2021/07/24 04:37:24;;;;;;;17.40;10.77;;;;;;;19.70;53.77;92448.31;2065516;69;20235;-74
2021/07/24 04:39:49;;;;;;;17.88;11.57;;;;;;;19.62;54.44;92451.72;2052438;70;20512;-74
2021/07/24 04:42:15;;;;;;;16.90;11.18;;;;;;;19.42;56.65;92449.06;2052445;69;20134;-75
2021/07/24 04:44:40;;;;;;;17.45;11.25;;;;;;;19.30;56.64;92446.66;2052464;70;20607;-75
2021/07/24 04:47:06;;;;;;;18.95;10.95;;;;;;;19.44;56.35;92437.69;2052290;70;20149;-75
2021/07/24 04:49:32;;;;;;;16.52;10.88;;;;;;;19.75;52.68;92444.16;2052534;70;20245;-75
2021/07/24 04:51:59;;;;;;;18.15;11.00;;;;;;;19.84;51.42;92430.75;2052399;70;20516;-75
2021/07/24 04:54:25;;;;;;;20.17;11.50;;;;;;;19.21;55.80;92435.72;2052395;70;20239;-74
2021/07/24 04:56:51;;;;;;;17.98;11.23;;;;;;;19.15;55.26;92424.88;2052419;70;20676;-75
2021/07/24 04:59:18;;;;;;;22.90;11.68;;;;;;;19.43;54.56;92424.84;2052547;70;20229;-74
2021/07/24 05:01:43;;;;;;;15.68;11.20;;;;;;;19.47;55.29;92415.63;2052397;70;20247;-75
2021/07/24 05:04:11;;;;;;;20.67;12.55;;;;;;;19.28;55.96;92425.88;2052361;69;20169;-75
2021/07/24 05:06:37;;;;;;;19.02;11.98;;;;;;;19.27;56.11;92421.59;2052482;70;20146;-75
2021/07/24 05:09:08;;;;;;;18.98;11.38;;;;;;;19.44;57.44;92422.72;2052391;70;20157;-75
2021/07/24 05:11:35;;;;;;;16.85;11.32;;;;;;;19.44;56.55;92414.16;2052541;70;20202;-75
2021/07/24 05:14:01;;;;;;;18.10;11.52;;;;;;;19.53;57.59;92422.22;2052342;70;20147;-75
2021/07/24 05:16:27;;;;;;;17.33;11.48;;;;;;;19.60;55.81;92428.81;2052335;70;20157;-75
2021/07/24 05:18:52;;;;;;;19.38;11.68;;;;;;;19.64;55.69;92442.47;2052234;70;20150;-75
2021/07/24 05:21:18;;;;;;;20.42;12.35;;;;;;;19.60;57.28;92433.78;2052313;70;20162;-75
2021/07/24 05:23:44;;;;;;;19.75;11.50;;;;;;;19.65;57.11;92432.47;2065242;69;20319;-75
2021/07/24 05:26:16;;;;;;;16.13;11.00;;;;;;;19.69;56.83;92435.44;2052398;70;20154;-74
2021/07/24 05:28:42;;;;;;;22.98;12.23;;;;;;;19.52;57.88;92431.47;2052311;69;20649;-75
2021/07/24 05:31:15;;;;;;;23.88;11.40;;;;;;;19.57;58.10;92423.72;2052308;70;20154;-73
2021/07/24 05:33:41;;;;;;;18.27;11.80;;;;;;;19.48;57.79;92432.09;2052156;70;20150;-74
2021/07/24 05:36:06;;;;;;;20.90;11.65;;;;;;;19.48;57.76;92429.25;2052329;69;20131;-74
2021/07/24 05:38:32;;;;;;;19.15;12.00;;;;;;;19.48;57.71;92426.38;2052141;69;20134;-74
2021/07/24 05:41:00;;;;;;;18.02;12.73;;;;;;;19.34;59.05;92428.91;2052267;70;20146;-74
2021/07/24 05:43:26;;;;;;;18.55;11.98;;;;;;;19.47;58.75;92427.03;2052468;70;20151;-73
2021/07/24 05:45:51;;;;;;;17.42;12.25;;;;;;;19.59;57.17;92427.34;2052216;70;20152;-73
2021/07/24 05:48:17;;;;;;;17.45;11.40;;;;;;;19.67;57.98;92421.13;2052101;69;20142;-73
2021/07/24 05:50:42;;;;;;;23.13;12.52;;;;;;;19.68;56.74;92423.28;2052161;70;20142;-75
2021/07/24 05:53:08;;;;;;;19.40;12.25;;;;;;;19.75;56.34;92432.75;2065167;69;20158;-74
2021/07/24 05:55:34;;;;;;;19.75;12.65;;;;;;;19.85;55.05;92437.94;2052195;70;20675;-74
2021/07/24 05:57:59;;;;;;;20.17;12.45;;;;;;;19.78;56.01;92445.63;2052217;70;20161;-73
2021/07/24 06:00:25;;;;;;;17.52;12.32;;;;;;;19.85;58.15;92444.38;2065128;69;20146;-74
2021/07/24 06:02:50;;;;;;;21.80;12.68;;;;;;;19.87;57.96;92452.97;2052178;70;20241;-74
2021/07/24 06:05:16;;;;;;;24.02;13.02;;;;;;;19.75;57.55;92444.88;2052338;70;20142;-74
2021/07/24 06:07:42;;;;;;;19.45;13.45;;;;;;;19.74;57.63;92448.41;2052118;69;20146;-74
2021/07/24 06:10:08;;;;;;;18.83;12.35;;;;;;;20.08;56.46;92442.00;2052209;70;20150;-74
2021/07/24 06:12:33;;;;;;;20.10;13.57;;;;;;;19.89;55.65;92435.91;2052318;70;20158;-74
2021/07/24 06:15:00;;;;;;;21.15;12.77;;;;;;;20.29;55.67;92430.31;2052187;70;20142;-75
2021/07/24 06:17:25;;;;;;;17.75;11.77;;;;;;;20.34;56.76;92419.69;2052160;70;20237;-75
2021/07/24 06:19:51;;;;;;;17.40;12.95;;;;;;;20.42;56.78;92433.41;2052278;70;20146;-75
2021/07/24 06:22:16;;;;;;;20.38;12.48;;;;;;;20.59;55.25;92431.63;2052309;69;20207;-75
2021/07/24 06:24:42;;;;;;;16.88;12.50;;;;;;;20.81;54.50;92424.22;2052263;70;20154;-75
2021/07/24 06:27:07;;;;;;;19.45;12.27;;;;;;;20.96;54.53;92428.03;2052280;69;20161;-76
2021/07/24 06:29:33;;;;;;;19.10;12.80;;;;;;;20.45;54.35;92426.34;2052235;69;20184;-75
2021/07/24 06:31:59;;;;;;;16.65;12.10;;;;;;;20.70;52.88;92425.41;2052087;69;20577;-74
2021/07/24 06:34:24;;;;;;;17.98;12.02;;;;;;;20.73;52.50;92435.50;2052161;69;20192;-74
2021/07/24 06:36:50;;;;;;;16.63;11.27;;;;;;;21.28;50.17;92416.44;2052290;69;20144;-75
2021/07/24 06:39:15;;;;;;;15.52;10.90;;;;;;;21.60;50.20;92409.81;2052190;70;20158;-75
2021/07/24 06:41:43;;;;;;;16.55;11.07;;;;;;;21.76;52.92;92406.44;2052284;69;20153;-74
2021/07/24 06:44:09;;;;;;;15.35;11.80;;;;;;;21.91;51.41;92416.00;2052159;69;20145;-75
2021/07/24 06:46:35;;;;;;;16.48;11.70;;;;;;;21.85;51.28;92413.75;2052037;69;20151;-75
2021/07/24 06:49:00;;;;;;;18.60;11.90;;;;;;;21.97;52.04;92418.94;2052170;70;20238;-75
2021/07/24 06:51:26;;;;;;;15.45;11.45;;;;;;;21.98;48.88;92415.34;2051894;69;20142;-75
2021/07/24 06:53:51;;;;;;;18.20;11.32;;;;;;;21.94;49.64;92414.56;2052323;69;20134;-74
2021/07/24 06:56:17;;;;;;;16.25;11.18;;;;;;;21.97;52.29;92413.91;2052246;70;20230;-74
2021/07/24 06:58:43;;;;;;;15.55;11.30;;;;;;;21.85;55.17;92410.16;2052101;70;20603;-74
2021/07/24 07:01:08;;;;;;;17.77;12.32;;;;;;;21.96;55.13;92414.63;2052190;69;20197;-75
2021/07/24 07:03:35;;;;;;;15.35;10.95;;;;;;;22.10;53.59;92416.97;2064980;69;20535;-74
2021/07/24 07:06:04;;;;;;;16.02;10.88;;;;;;;22.04;57.23;92415.47;2052113;70;20238;-76
2021/07/24 07:08:29;;;;;;;16.38;10.65;;;;;;;22.21;52.52;92416.41;2052099;70;20610;-75
2021/07/24 07:11:01;;;;;;;16.85;10.88;;;;;;;22.37;56.10;92415.91;2052049;69;20139;-74
2021/07/24 07:13:26;;;;;;;17.60;13.02;;;;;;;22.10;53.58;92399.75;2052194;70;20150;-75
2021/07/24 07:15:52;;;;;;;17.55;11.32;;;;;;;22.43;50.31;92410.25;2052091;70;20215;-75
2021/07/24 07:18:17;;;;;;;18.00;10.88;;;;;;;22.62;50.89;92419.06;2052007;70;20157;-76
2021/07/24 07:20:46;;;;;;;19.98;12.65;;;;;;;22.58;53.06;92423.31;2052093;69;20134;-75
2021/07/24 07:23:12;;;;;;;19.67;12.20;;;;;;;22.71;54.66;92420.59;2052089;70;20639;-75
2021/07/24 07:25:38;;;;;;;15.80;11.40;;;;;;;22.81;51.33;92415.69;2052094;70;20138;-75
2021/07/24 07:28:04;;;;;;;17.00;11.93;;;;;;;22.86;55.01;92419.31;2052149;70;20150;-75
2021/07/24 07:30:30;;;;;;;16.35;12.15;;;;;;;23.01;50.55;92420.97;2052116;70;20149;-75
2021/07/24 07:32:55;;;;;;;17.05;12.70;;;;;;;23.07;50.35;92423.16;2051938;70;20169;-75
2021/07/24 07:35:21;;;;;;;17.95;12.52;;;;;;;23.19;50.58;92416.81;2052191;70;20608;-75
2021/07/24 07:37:49;;;;;;;21.90;12.20;;;;;;;23.25;49.97;92414.00;2065032;69;20607;-79
2021/07/24 07:40:14;;;;;;;17.20;11.82;;;;;;;23.32;48.79;92415.47;2052068;70;20628;-79
2021/07/24 07:42:40;;;;;;;20.20;12.75;;;;;;;23.35;51.49;92414.09;2052184;70;20147;-77
2021/07/24 07:45:06;;;;;;;16.63;11.70;;;;;;;23.43;54.88;92413.44;2052076;70;20150;-77
2021/07/24 07:47:35;;;;;;;21.27;11.50;;;;;;;23.59;52.62;92402.81;2051828;70;20139;-80
2021/07/24 07:50:01;;;;;;;18.90;11.32;;;;;;;23.65;52.14;92407.19;2052081;70;20602;-80
2021/07/24 07:52:28;;;;;;;15.55;11.20;;;;;;;23.84;53.80;92411.63;2064784;69;20138;-77
2021/07/24 07:54:54;;;;;;;16.42;11.10;;;;;;;23.83;54.31;92410.91;2051948;69;20243;-77
2021/07/24 07:57:19;;;;;;;23.40;13.27;;;;;;;23.93;50.97;92424.63;2051976;70;20207;-77
2021/07/24 07:59:45;;;;;;;19.10;13.10;;;;;;;23.77;48.95;92428.09;2052061;70;20150;-77
2021/07/24 08:02:10;;;;;;;17.83;12.55;;;;;;;23.51;48.61;92427.88;2052012;70;20153;-76
2021/07/24 08:04:36;;;;;;;15.50;11.50;;;;;;;23.72;48.24;92440.28;2052498;70;20146;-77
2021/07/24 08:07:01;;;;;;;18.52;13.25;;;;;;;23.70;49.27;92446.00;2052537;70;20194;-78
2021/07/24 08:09:27;;;;;;;16.67;12.70;;;;;;;23.88;48.89;92449.03;2052675;70;20150;-77
2021/07/24 08:11:54;;;;;;;18.48;13.07;;;;;;;24.09;47.77;92453.47;2052640;69;20153;-77
2021/07/24 08:14:20;;;;;;;19.27;13.27;;;;;;;24.13;50.37;92443.44;2052533;69;20142;-76
2021/07/24 08:16:45;;;;;;;18.35;12.95;;;;;;;24.99;49.96;92453.94;2065316;69;20154;-77
2021/07/24 08:19:11;;;;;;;17.58;12.45;;;;;;;25.40;48.49;92436.78;2062682;69;20157;-77
2021/07/24 08:21:37;;;;;;;18.60;12.63;;;;;;;25.44;47.56;92436.78;2052473;70;20517;-77
2021/07/24 08:24:02;;;;;;;18.45;13.13;;;;;;;25.71;47.30;92428.16;2052456;70;20147;-78
2021/07/24 08:26:28;;;;;;;20.38;12.65;;;;;;;26.10;46.09;92425.97;2052565;70;20470;-79
2021/07/24 08:28:53;;;;;;;16.55;12.68;;;;;;;26.34;44.48;92411.50;2065383;69;20212;-76
2021/07/24 08:31:19;;;;;;;18.38;12.65;;;;;;;26.44;44.36;92402.13;2052447;70;20161;-81
2021/07/24 08:33:45;;;;;;;16.02;11.95;;;;;;;26.67;43.78;92402.06;2052320;70;20162;-77
2021/07/24 08:36:10;;;;;;;16.38;12.15;;;;;;;26.58;43.04;92410.75;2052426;69;20597;-77
2021/07/24 08:38:36;;;;;;;17.80;12.98;;;;;;;26.82;44.98;92415.69;2052405;70;20241;-79
2021/07/24 08:41:03;;;;;;;19.05;12.45;;;;;;;27.16;44.30;92416.97;2065338;69;20241;-77
2021/07/24 08:43:29;;;;;;;18.00;12.55;;;;;;;27.36;44.05;92416.88;2052401;70;20138;-83
2021/07/24 08:45:57;;;;;;;21.73;13.48;;;;;;;27.10;44.79;92411.97;2052334;69;20165;-81
2021/07/24 08:48:23;;;;;;;16.20;12.73;;;;;;;27.19;44.38;92414.81;2064411;69;20705;-79
2021/07/24 08:50:50;;;;;;;15.18;12.13;;;;;;;26.39;45.13;92411.47;2052514;70;20154;-77
2021/07/24 08:53:20;;;;;;;17.88;12.82;;;;;;;26.66;44.29;92395.53;2052129;70;20158;-77
2021/07/24 08:55:46;;;;;;;18.92;12.75;;;;;;;27.21;45.20;92392.38;2052123;69;20223;-78
2021/07/24 08:58:13;;;;;;;19.90;12.88;;;;;;;27.51;43.41;92390.75;2052282;69;20165;-79
2021/07/24 09:00:42;;;;;;;18.08;13.10;;;;;;;27.31;43.25;92374.28;2052382;70;20153;-79
2021/07/24 09:03:08;;;;;;;17.88;12.73;;;;;;;27.48;41.92;92374.88;2052252;70;20205;-78
2021/07/24 09:05:36;;;;;;;16.90;12.15;;;;;;;27.81;41.10;92366.66;2052290;70;20262;-73
2021/07/24 09:08:06;;;;;;;15.38;11.55;;;;;;;28.17;40.81;92359.81;2052193;70;20186;-75
2021/07/24 09:10:32;;;;;;;14.43;11.60;;;;;;;28.23;39.83;92361.94;2052059;70;20588;-76
2021/07/24 09:12:58;;;;;;;19.90;11.50;;;;;;;28.27;40.06;92351.03;2052141;69;20150;-76
2021/07/24 09:15:24;;;;;;;15.77;11.68;;;;;;;28.61;39.30;92344.16;2052045;70;20160;-75
2021/07/24 09:17:49;;;;;;;16.10;11.30;;;;;;;29.00;39.63;92334.25;2052199;70;20151;-74
2021/07/24 09:20:17;;;;;;;14.02;10.85;;;;;;;29.33;36.98;92332.31;2052099;70;20162;-76
2021/07/24 09:22:43;;;;;;;15.80;11.32;;;;;;;29.46;38.99;92332.13;2051984;69;20154;-77
2021/07/24 09:25:12;;;;;;;14.57;10.88;;;;;;;29.53;37.68;92327.66;2051997;70;20148;-76
2021/07/24 09:27:46;;;;;;;14.65;11.43;;;;;;;29.15;38.31;92323.19;2051941;70;20158;-75
2021/07/24 09:30:33;;;;;;;16.08;11.88;;;;;;;29.43;37.71;92330.72;2052255;69;20134;-78
2021/07/24 09:33:10;;;;;;;14.82;11.73;;;;;;;28.99;39.17;92330.63;2052252;70;20262;-79
2021/07/24 09:36:03;;;;;;;15.38;12.00;;;;;;;29.29;38.57;92323.69;2052269;69;20134;-82
2021/07/24 09:38:34;;;;;;;14.35;11.32;;;;;;;30.03;37.65;92328.28;2052315;69;20138;-82
2021/07/24 09:41:01;;;;;;;14.52;10.98;;;;;;;29.84;37.48;92322.09;2052304;70;20173;-78
2021/07/24 09:43:42;;;;;;;14.52;11.52;;;;;;;30.19;36.83;92318.59;2052290;70;20138;-77
2021/07/24 09:46:21;;;;;;;16.27;11.55;;;;;;;30.03;37.01;92314.50;2052298;69;20673;-76
2021/07/24 09:48:52;;;;;;;13.30;11.27;;;;;;;30.97;37.20;92309.75;2052165;70;20219;-78
2021/07/24 09:51:34;;;;;;;17.38;11.43;;;;;;;30.44;35.08;92310.84;2052400;69;20158;-78
2021/07/24 09:54:00;;;;;;;15.45;11.93;;;;;;;30.15;35.88;92307.03;2052380;70;20598;-77
2021/07/24 09:56:42;;;;;;;13.90;11.23;;;;;;;31.50;36.07;92302.03;2052393;70;20242;-78
2021/07/24 09:59:18;;;;;;;;;;;;;;;32.05;34.13;92306.50;2052466;70;20143;-77
2021/07/24 10:01:52;;;;;;;14.23;10.82;;;;;;;31.90;34.02;92299.63;2052157;70;20050;-77
2021/07/24 10:04:25;;;;;;;13.10;10.65;;;;;;;32.25;34.39;92300.13;2052386;70;20150;-78
2021/07/24 10:06:54;;;;;;;13.88;10.80;;;;;;;31.66;33.54;92298.00;2052215;70;20186;-78
2021/07/24 10:09:25;;;;;;;17.92;10.70;;;;;;;32.36;33.18;92309.31;2052256;70;20154;-77
2021/07/24 10:11:53;;;;;;;13.40;10.90;;;;;;;32.70;32.45;92304.72;2052356;70;20601;-78
2021/07/24 10:14:19;;;;;;;14.55;10.18;;;;;;;31.50;32.58;92299.84;2065131;69;20612;-77
2021/07/24 10:16:45;;;;;;;16.85;10.68;;;;;;;30.97;33.34;92291.59;2065082;69;20184;-77
2021/07/24 10:19:12;;;;;;;11.60;10.15;;;;;;;31.51;33.30;92298.34;2052252;70;20502;-78
2021/07/24 10:21:37;;;;;;;15.80;10.43;;;;;;;31.61;33.45;92297.38;2052194;70;20602;-78
2021/07/24 10:24:03;;;;;;;13.70;10.90;;;;;;;30.97;33.83;92295.22;2052200;70;20217;-77
2021/07/24 10:26:33;;;;;;;11.88;10.25;;;;;;;30.99;34.26;92288.66;2052089;70;20655;-77
2021/07/24 10:29:17;;;;;;;19.83;10.80;;;;;;;31.73;33.34;92300.00;2052150;70;20137;-78
2021/07/24 10:31:52;;;;;;;12.88;10.50;;;;;;;31.67;35.35;92293.63;2052205;69;20143;-78
2021/07/24 10:34:24;;;;;;;14.43;10.60;;;;;;;31.63;33.68;92288.63;2052281;69;20598;-78
2021/07/24 10:36:50;;;;;;;;;;;;;;;32.68;32.99;92292.44;2052383;70;20150;-77
2021/07/24 10:39:15;;;;;;;14.55;10.45;;;;;;;32.77;32.41;92287.81;2052195;70;20050;-78
2021/07/24 10:41:47;;;;;;;13.82;10.25;;;;;;;32.54;33.43;92291.34;2052275;70;20147;-78
2021/07/24 10:44:16;;;;;;;12.75;10.32;;;;;;;32.61;32.17;92300.63;2052175;69;20597;-78
2021/07/24 10:46:44;;;;;;;16.42;10.15;;;;;;;33.33;31.34;92299.25;2052033;69;20665;-78
2021/07/24 10:49:22;;;;;;;13.68;9.57;;;;;;;33.98;31.04;92291.34;2052275;70;20176;-79
2021/07/24 10:51:58;;;;;;;11.80;10.25;;;;;;;34.76;30.52;92282.78;2052348;70;20142;-79
2021/07/24 10:54:26;;;;;;;17.20;9.68;;;;;;;35.54;31.21;92287.13;2052169;70;20147;-78
2021/07/24 10:56:51;;;;;;;15.52;10.45;;;;;;;35.02;28.71;92275.97;2052176;70;20602;-77
2021/07/24 10:59:21;;;;;;;10.82;9.52;;;;;;;35.28;27.78;92271.31;2052132;69;20134;-78
2021/07/24 11:01:47;;;;;;;14.75;9.30;;;;;;;35.61;27.86;92261.25;2051987;69;20169;-79
2021/07/24 11:04:42;;;;;;;16.48;9.68;;;;;;;34.85;27.87;92255.38;2052249;70;20181;-79
2021/07/24 11:07:13;;;;;;;11.90;9.27;;;;;;;34.70;28.75;92259.63;2052082;70;20158;-79
2021/07/24 11:09:40;;;;;;;10.25;9.05;;;;;;;35.59;27.13;92244.47;2052161;69;20566;-79
2021/07/24 11:12:08;;;;;;;12.25;9.05;;;;;;;38.05;25.40;92258.34;2052222;70;20139;-79
2021/07/24 11:14:34;;;;;;;11.38;8.70;;;;;;;39.87;23.07;92246.44;2052106;70;20170;-76
2021/07/24 11:17:05;;;;;;;11.20;8.88;;;;;;;41.04;22.03;92245.44;2051965;70;20518;-79
2021/07/24 11:19:37;;;;;;;11.20;8.90;;;;;;;39.44;21.84;92238.59;2052097;70;20228;-77
2021/07/24 11:22:15;;;;;;;14.23;8.65;;;;;;;41.78;21.88;92224.47;2052133;70;20149;-76
2021/07/24 11:24:43;;;;;;;9.30;7.82;;;;;;;43.40;20.31;92226.06;2052080;69;20170;-76
2021/07/24 11:27:09;;;;;;;12.95;7.20;;;;;;;45.88;18.53;92229.47;2052003;70;20228;-76